Aullville, Missouri
Current Conditions -  °F | °C
As of 3:55 PM on Sunday 21 Dec 2014 (Local Time) from KRCM Reporting Station
Haze Haze  
Wind Chill: 37°   Ceiling: 1000
Heat Index: 43°   Visibility: 5mi
Dew Point: 41°   Wind: 9mph
Humidity: 93%   Direction: 150°SSE
Pressure: 29.88"   Gusts: NA
Location:  39.0541°N, 93.6618°W
Report Text: KRCM 212155Z AUTO 15008KT 5SM BR SCT006 BKN010 OVC015 06/05 A2988 RMK AO2
Loading
Personal Weather Stations






























Interactive Weather Map New forecast layout! Learn more

10-Day Weather Forecast

Advertisements
Track Severe Weather on mobile